Time;durP1;ratioP1;P1;durP2;ratioP2;P2;SDS_P1;SDS_P2;PMS_P1;PMS_P2;Temp;Humidity;BMP_temperature;BMP_pressure;BME280_temperature;BME280_humidity;BME280_pressure;Samples;Min_cycle;Max_cycle;Signal;HPM_P1;HPM_P2
2022/01/22 00:01:37;;;;;;;;;;;;;;;;;;4807471;29;19925;-81
2022/01/22 00:04:23;;;;;;;23.30;8.93;;;;;;;;;;4807348;29;19917;-82
2022/01/22 00:07:10;;;;;;;11.90;5.70;;;;;;;;;;4804405;29;20054;-83
2022/01/22 00:10:02;;;;;;;1427.85;538.25;;;;;;;;;;4803887;29;20047;-82
2022/01/22 00:15:41;;;;;;;1144.88;439.58;;;;;;;;;;4806221;29;20063;-83
2022/01/22 00:18:27;;;;;;;701.78;244.27;;;;;;;;;;4806038;29;20521;-82
2022/01/22 00:21:13;;;;;;;39.63;13.95;;;;;;;;;;4805604;29;20050;-83
2022/01/22 00:24:01;;;;;;;343.92;96.68;;;;;;;;;;4798971;29;20414;-82
2022/01/22 00:26:47;;;;;;;39.97;13.32;;;;;;;;;;4806565;29;20485;-81
2022/01/22 00:29:33;;;;;;;415.30;140.23;;;;;;;;;;4798070;29;20414;-82
2022/01/22 00:32:19;;;;;;;189.93;53.28;;;;;;;;;;4806638;29;20047;-83
2022/01/22 00:35:07;;;;;;;119.72;33.65;;;;;;;;;;4806446;29;20058;-81
2022/01/22 00:37:53;;;;;;;236.88;70.90;;;;;;;;;;4806000;29;20059;-81
2022/01/22 00:40:38;;;;;;;151.15;44.15;;;;;;;;;;4806568;29;20054;-83
2022/01/22 00:43:25;;;;;;;176.13;59.20;;;;;;;;;;4812474;29;20042;-82
2022/01/22 00:46:10;;;;;;;127.28;40.40;;;;;;;;;;4806288;29;20055;-81
2022/01/22 00:48:56;;;;;;;98.32;37.47;;;;;;;;;;4806296;29;20047;-81
2022/01/22 00:51:42;;;;;;;50.47;18.02;;;;;;;;;;4805742;29;20047;-82
2022/01/22 00:54:27;;;;;;;64.15;21.08;;;;;;;;;;4792753;29;20054;-82
2022/01/22 00:57:13;;;;;;;56.92;20.60;;;;;;;;;;4799102;29;20047;-81
2022/01/22 00:59:59;;;;;;;43.30;14.95;;;;;;;;;;4806082;29;20067;-82
2022/01/22 01:02:46;;;;;;;47.40;15.63;;;;;;;;;;4812328;29;20414;-82
2022/01/22 01:05:46;;;;;;;24.45;12.05;;;;;;;;;;4806158;29;20397;-82
2022/01/22 01:08:35;;;;;;;14.85;7.45;;;;;;;;;;4805859;29;20043;-82
2022/01/22 01:11:27;;;;;;;32.25;11.02;;;;;;;;;;4811696;29;20051;-82
2022/01/22 01:14:27;;;;;;;22.27;9.20;;;;;;;;;;4797215;29;20055;-81
2022/01/22 01:35:42;;;;;;;28.20;9.93;;;;;;;;;;4800479;29;20050;-82
2022/01/22 01:38:30;;;;;;;27.58;10.88;;;;;;;;;;4814178;29;20050;-82
2022/01/22 01:41:30;;;;;;;23.15;10.73;;;;;;;;;;4788039;29;20058;-83
2022/01/22 01:44:17;;;;;;;15.95;6.45;;;;;;;;;;4800686;29;20055;-82
2022/01/22 01:47:05;;;;;;;7.22;5.68;;;;;;;;;;4808161;29;20047;-82
2022/01/22 01:49:54;;;;;;;17.90;6.43;;;;;;;;;;4813635;29;20043;-82
2022/01/22 01:52:53;;;;;;;17.65;5.85;;;;;;;;;;4800561;29;20070;-82
2022/01/22 01:56:04;;;;;;;16.50;5.47;;;;;;;;;;4799948;29;20051;-82
2022/01/22 01:58:55;;;;;;;15.10;6.90;;;;;;;;;;4800581;29;20051;-84
2022/01/22 02:01:42;;;;;;;17.10;6.43;;;;;;;;;;4800119;29;20043;-84
2022/01/22 02:04:26;;;;;;;12.43;5.85;;;;;;;;;;4799758;29;20493;-83
2022/01/22 02:07:12;;;;;;;17.52;7.07;;;;;;;;;;4808027;29;20055;-82
2022/01/22 02:26:24;;;;;;;22.40;9.30;;;;;;;;;;5046001;28;20478;-81
2022/01/22 02:29:09;;;;;;;26.55;10.38;;;;;;;;;;5039470;28;20060;-82
2022/01/22 02:44:48;;;;;;;10.88;6.07;;;;;;;;;;5048215;28;20041;-84
2022/01/22 02:51:47;;;;;;;22.35;9.95;;;;;;;;;;5071030;28;20076;-84
2022/01/22 02:54:35;;;;;;;23.83;8.65;;;;;;;;;;5083322;28;20044;-83
2022/01/22 02:57:26;;;;;;;18.08;8.18;;;;;;;;;;5110925;28;20044;-83
2022/01/22 03:00:17;;;;;;;30.83;11.00;;;;;;;;;;5101984;28;20157;-84
2022/01/22 03:03:03;;;;;;;22.83;8.65;;;;;;;;;;5102390;28;20044;-83
2022/01/22 03:05:50;;;;;;;19.25;8.50;;;;;;;;;;5102217;28;20048;-83
2022/01/22 03:08:39;;;;;;;23.52;10.30;;;;;;;;;;5099509;28;20052;-83
2022/01/22 03:11:29;;;;;;;18.45;8.70;;;;;;;;;;5110871;28;20398;-83
2022/01/22 03:15:01;;;;;;;23.85;8.63;;;;;;;;;;5117116;28;20485;-83
2022/01/22 03:20:35;;;;;;;5.45;1.88;;;;;;;;;;5094721;28;20044;-84
2022/01/22 03:29:33;;;;;;;2.33;1.80;;;;;;;;;;5087813;28;20036;-83
2022/01/22 03:32:23;;;;;;;4.68;2.00;;;;;;;;;;5088414;28;20393;-83
2022/01/22 03:35:13;;;;;;;3.25;1.45;;;;;;;;;;5087694;28;20040;-84
2022/01/22 03:37:59;;;;;;;7.13;2.65;;;;;;;;;;5096670;28;20048;-83
2022/01/22 03:40:49;;;;;;;6.05;2.28;;;;;;;;;;5088279;28;20040;-84
2022/01/22 03:43:38;;;;;;;12.23;5.95;;;;;;;;;;5087549;28;20044;-84
2022/01/22 03:46:24;;;;;;;8.40;5.22;;;;;;;;;;5088038;28;20040;-84
2022/01/22 03:49:11;;;;;;;16.95;8.23;;;;;;;;;;5087297;28;20044;-84
2022/01/22 03:51:57;;;;;;;6.25;3.75;;;;;;;;;;5087809;28;20055;-83
2022/01/22 03:54:42;;;;;;;3.30;2.22;;;;;;;;;;5096445;28;20048;-84
2022/01/22 03:57:29;;;;;;;4.00;2.80;;;;;;;;;;5087030;28;20052;-85
2022/01/22 04:00:15;;;;;;;3.13;2.05;;;;;;;;;;5073994;28;20416;-85
2022/01/22 04:06:50;;;;;;;1.98;1.48;;;;;;;;;;5095831;28;20106;-84
2022/01/22 04:09:28;;;;;;;5.88;2.60;;;;;;;;;;5076638;28;20398;-84
2022/01/22 04:12:19;;;;;;;6.88;2.50;;;;;;;;;;5081068;28;20060;-84
2022/01/22 04:15:06;;;;;;;4.03;2.10;;;;;;;;;;5080636;28;20037;-84
2022/01/22 04:27:11;;;;;;;1.58;1.45;;;;;;;;;;5075274;28;20033;-83
2022/01/22 04:29:58;;;;;;;1.38;1.27;;;;;;;;;;5081074;28;20040;-85
2022/01/22 04:32:43;;;;;;;2.47;1.75;;;;;;;;;;5074034;28;20044;-83
2022/01/22 04:35:29;;;;;;;6.07;2.45;;;;;;;;;;5075517;28;20044;-82
2022/01/22 04:38:15;;;;;;;2.95;1.90;;;;;;;;;;5074765;28;20056;-85
2022/01/22 04:41:01;;;;;;;5.15;1.70;;;;;;;;;;5074763;28;20048;-84
2022/01/22 04:43:46;;;;;;;10.82;2.90;;;;;;;;;;5075202;28;20044;-82
2022/01/22 04:52:38;;;;;;;6.10;2.90;;;;;;;;;;5075189;28;20481;-85
2022/01/22 04:55:23;;;;;;;17.85;7.95;;;;;;;;;;5094673;28;20394;-83
2022/01/22 04:58:09;;;;;;;3.67;2.28;;;;;;;;;;5095433;28;20044;-86
2022/01/22 05:00:55;;;;;;;3.80;2.60;;;;;;;;;;5081815;28;20041;-84
2022/01/22 05:03:50;;;;;;;3.03;2.35;;;;;;;;;;5078607;28;20044;-82
2022/01/22 05:06:53;;;;;;;2.33;1.83;;;;;;;;;;5074233;28;20040;-85
2022/01/22 05:09:42;;;;;;;4.60;2.95;;;;;;;;;;5074594;28;20052;-83
2022/01/22 05:12:29;;;;;;;5.35;2.50;;;;;;;;;;5080413;28;20044;-83
2022/01/22 05:15:16;;;;;;;5.85;2.75;;;;;;;;;;5079748;28;20048;-85
2022/01/22 05:18:06;;;;;;;4.38;2.20;;;;;;;;;;5109316;28;20040;-82
2022/01/22 05:21:00;;;;;;;5.43;2.40;;;;;;;;;;5074121;28;20044;-84
2022/01/22 05:23:47;;;;;;;5.45;2.63;;;;;;;;;;5079826;28;20048;-84
2022/01/22 05:39:07;;;;;;;6.85;3.47;;;;;;;;;;5080168;28;20036;-83
2022/01/22 05:41:52;;;;;;;9.48;4.80;;;;;;;;;;5075472;28;20396;-84
2022/01/22 05:44:38;;;;;;;8.77;4.43;;;;;;;;;;5097952;28;20041;-83
2022/01/22 05:47:26;;;;;;;6.93;3.83;;;;;;;;;;5072921;28;20482;-82
2022/01/22 05:50:25;;;;;;;14.95;6.75;;;;;;;;;;5079013;28;20040;-82
2022/01/22 05:53:30;;;;;;;14.57;6.13;;;;;;;;;;5079960;28;20037;-83
2022/01/22 05:59:37;;;;;;;14.57;5.88;;;;;;;;;;5079367;28;20032;-83
2022/01/22 06:02:23;;;;;;;22.20;10.60;;;;;;;;;;5079218;28;20417;-82
2022/01/22 06:05:16;;;;;;;28.13;12.25;;;;;;;;;;5078959;28;20494;-82
2022/01/22 06:08:01;;;;;;;22.23;6.53;;;;;;;;;;5080205;28;20044;-81
2022/01/22 06:10:53;;;;;;;20.65;8.98;;;;;;;;;;5084936;28;20040;-84
2022/01/22 06:13:46;;;;;;;16.13;6.88;;;;;;;;;;5093412;28;20044;-81
2022/01/22 06:16:37;;;;;;;21.23;8.55;;;;;;;;;;5085386;28;20039;-84
2022/01/22 06:19:41;;;;;;;18.40;8.07;;;;;;;;;;5080966;28;20036;-84
2022/01/22 06:22:26;;;;;;;19.63;7.93;;;;;;;;;;5085399;28;20051;-83
2022/01/22 06:25:11;;;;;;;18.30;7.72;;;;;;;;;;5084921;28;20048;-84
2022/01/22 06:27:58;;;;;;;15.95;7.40;;;;;;;;;;5085702;28;20044;-84
2022/01/22 06:30:46;;;;;;;10.25;4.95;;;;;;;;;;5084223;28;20044;-83
2022/01/22 06:33:31;;;;;;;9.48;5.28;;;;;;;;;;5084593;28;20040;-83
2022/01/22 06:36:17;;;;;;;13.25;6.43;;;;;;;;;;5100354;28;20044;-83
2022/01/22 06:39:17;;;;;;;12.35;6.32;;;;;;;;;;5071272;28;20040;-85
2022/01/22 06:42:34;;;;;;;11.63;6.03;;;;;;;;;;5100012;28;20412;-86
2022/01/22 06:45:40;;;;;;;13.30;6.57;;;;;;;;;;5085030;28;20040;-84
2022/01/22 06:48:30;;;;;;;6.82;4.75;;;;;;;;;;5097902;28;20036;-84
2022/01/22 06:51:43;;;;;;;19.20;8.50;;;;;;;;;;5084820;28;20048;-84
2022/01/22 06:54:28;;;;;;;14.88;6.82;;;;;;;;;;5084624;28;20040;-84
2022/01/22 06:57:14;;;;;;;13.15;7.20;;;;;;;;;;5097501;28;20044;-82
2022/01/22 07:00:00;;;;;;;6.35;3.58;;;;;;;;;;5088769;28;20048;-84
2022/01/22 07:02:46;;;;;;;13.02;6.13;;;;;;;;;;5088566;28;20040;-83
2022/01/22 07:05:33;;;;;;;6.45;3.63;;;;;;;;;;5088827;28;20047;-84
2022/01/22 07:08:25;;;;;;;7.18;4.05;;;;;;;;;;5088478;28;20032;-84
2022/01/22 07:11:16;;;;;;;5.53;3.10;;;;;;;;;;5110943;28;20040;-83
2022/01/22 07:14:03;;;;;;;10.88;4.05;;;;;;;;;;5088302;28;20036;-84
2022/01/22 07:16:49;;;;;;;13.55;7.40;;;;;;;;;;5088466;28;20043;-84
2022/01/22 07:19:53;;;;;;;7.53;3.63;;;;;;;;;;5084730;28;20032;-85
2022/01/22 07:25:53;;;;;;;9.93;6.10;;;;;;;;;;5103458;28;20036;-84
2022/01/22 07:28:57;;;;;;;16.58;8.18;;;;;;;;;;5096561;28;20048;-83
2022/01/22 07:31:44;;;;;;;27.83;11.65;;;;;;;;;;5087987;28;20397;-83
2022/01/22 07:34:31;;;;;;;22.63;10.55;;;;;;;;;;5087795;28;20043;-84
2022/01/22 07:37:26;;;;;;;18.80;9.45;;;;;;;;;;5074736;28;20052;-84
2022/01/22 07:40:24;;;;;;;82.72;32.35;;;;;;;;;;5116456;28;20044;-84
2022/01/22 07:43:16;;;;;;;87.95;36.25;;;;;;;;;;5087660;28;20043;-84
2022/01/22 07:46:21;;;;;;;19.85;9.57;;;;;;;;;;5083035;28;20047;-85
2022/01/22 07:49:10;;;;;;;25.92;12.35;;;;;;;;;;5087886;28;20052;-84
2022/01/22 07:52:03;;;;;;;28.63;16.70;;;;;;;;;;5087335;28;20043;-84
2022/01/22 07:54:50;;;;;;;16.70;10.77;;;;;;;;;;5087910;28;20040;-84
2022/01/22 07:57:36;;;;;;;39.13;17.80;;;;;;;;;;5087557;28;20048;-84
2022/01/22 08:00:27;;;;;;;70.05;24.23;;;;;;;;;;5087382;28;20433;-84
2022/01/22 08:03:13;;;;;;;65.28;23.42;;;;;;;;;;5087479;28;20039;-84
2022/01/22 08:06:19;;;;;;;48.00;21.02;;;;;;;;;;5095502;28;20040;-84
2022/01/22 08:09:23;;;;;;;49.53;19.95;;;;;;;;;;5095415;28;20044;-84
2022/01/22 08:12:14;;;;;;;29.27;13.20;;;;;;;;;;5095189;28;20048;-84
2022/01/22 08:15:01;;;;;;;25.70;10.35;;;;;;;;;;5087017;28;20473;-83
2022/01/22 08:17:47;;;;;;;47.17;19.60;;;;;;;;;;5088316;28;20048;-82
2022/01/22 08:20:36;;;;;;;52.67;23.50;;;;;;;;;;5086769;28;20040;-83
2022/01/22 08:23:23;;;;;;;64.28;26.90;;;;;;;;;;5095237;28;20036;-83
2022/01/22 08:26:30;;;;;;;14.70;8.10;;;;;;;;;;5086861;28;20048;-83
2022/01/22 08:29:35;;;;;;;26.45;11.10;;;;;;;;;;5075220;28;20044;-83
2022/01/22 08:35:54;;;;;;;21.70;5.97;;;;;;;;;;5035098;28;20381;-83
2022/01/22 08:38:42;;;;;;;12.98;7.18;;;;;;;;;;5102367;28;20039;-82
2022/01/22 08:41:29;;;;;;;15.98;6.38;;;;;;;;;;5087522;28;20039;-83
2022/01/22 08:44:15;;;;;;;12.70;8.05;;;;;;;;;;5086646;28;20064;-84
2022/01/22 08:47:00;;;;;;;22.45;10.23;;;;;;;;;;5086399;28;20043;-83
2022/01/22 08:49:46;;;;;;;28.08;10.25;;;;;;;;;;5086283;28;20043;-84
2022/01/22 08:52:35;;;;;;;11.20;5.80;;;;;;;;;;5086659;28;20048;-84
2022/01/22 08:55:22;;;;;;;12.00;5.80;;;;;;;;;;5086248;28;20044;-84
2022/01/22 08:58:08;;;;;;;11.85;5.78;;;;;;;;;;5086338;28;20051;-83
2022/01/22 09:01:16;;;;;;;14.90;6.45;;;;;;;;;;5086196;28;20040;-84
2022/01/22 09:04:05;;;;;;;9.63;4.47;;;;;;;;;;5085906;28;20040;-75
2022/01/22 09:07:00;;;;;;;9.38;5.22;;;;;;;;;;5114645;28;20055;-76
2022/01/22 09:09:58;;;;;;;3.70;2.75;;;;;;;;;;5080162;28;20040;-75
2022/01/22 09:12:58;;;;;;;8.93;4.22;;;;;;;;;;5094252;28;20048;-75
2022/01/22 09:15:50;;;;;;;10.95;4.50;;;;;;;;;;5085896;28;20036;-76
2022/01/22 09:18:37;;;;;;;9.93;4.72;;;;;;;;;;5085020;28;20478;-77
2022/01/22 09:21:23;;;;;;;6.57;3.85;;;;;;;;;;5085476;28;20398;-76
2022/01/22 09:24:10;;;;;;;11.40;5.85;;;;;;;;;;5094158;28;20044;-77
2022/01/22 09:26:58;;;;;;;8.73;3.72;;;;;;;;;;5114393;28;20040;-76
2022/01/22 09:29:44;;;;;;;8.68;5.47;;;;;;;;;;5085888;28;20044;-75
2022/01/22 09:32:29;;;;;;;22.10;11.52;;;;;;;;;;5093774;28;20043;-75
2022/01/22 09:35:35;;;;;;;14.23;7.28;;;;;;;;;;5100921;28;20040;-78
2022/01/22 09:38:47;;;;;;;24.00;11.65;;;;;;;;;;5100017;28;20047;-74
2022/01/22 09:41:32;;;;;;;22.67;9.55;;;;;;;;;;5093504;28;20040;-74
2022/01/22 09:44:47;;;;;;;13.90;7.25;;;;;;;;;;5096044;28;20493;-73
2022/01/22 09:47:51;;;;;;;46.92;16.83;;;;;;;;;;5093166;28;20048;-74
2022/01/22 09:50:58;;;;;;;14.95;7.10;;;;;;;;;;5085183;28;20036;-74
2022/01/22 09:53:58;;;;;;;16.50;7.78;;;;;;;;;;5104414;28;20048;-72
2022/01/22 09:57:03;;;;;;;12.70;6.60;;;;;;;;;;5093724;28;20035;-75
2022/01/22 10:00:09;;;;;;;53.97;23.48;;;;;;;;;;5084786;28;20044;-73
2022/01/22 10:03:00;;;;;;;20.05;8.65;;;;;;;;;;5093396;28;20044;-73
2022/01/22 10:05:52;;;;;;;23.25;13.10;;;;;;;;;;5084621;28;20047;-74
2022/01/22 10:09:13;;;;;;;6.07;3.65;;;;;;;;;;5081032;28;20505;-73
2022/01/22 10:12:29;;;;;;;12.15;6.80;;;;;;;;;;5046676;28;20048;-73
2022/01/22 10:15:39;;;;;;;15.00;8.27;;;;;;;;;;5092652;28;20044;-73
2022/01/22 10:18:37;;;;;;;21.35;10.60;;;;;;;;;;5085166;28;20040;-74
2022/01/22 10:21:26;;;;;;;16.15;8.32;;;;;;;;;;5092943;28;20040;-72
2022/01/22 10:27:38;;;;;;;17.23;8.07;;;;;;;;;;5093466;28;20040;-73
2022/01/22 10:30:34;;;;;;;14.77;5.82;;;;;;;;;;5094820;28;20047;-74
2022/01/22 10:33:33;;;;;;;6.07;3.60;;;;;;;;;;5097864;28;20389;-73
2022/01/22 10:36:38;;;;;;;12.73;5.70;;;;;;;;;;5096827;28;20044;-73
2022/01/22 10:39:34;;;;;;;4.45;3.08;;;;;;;;;;5097312;28;20487;-72
2022/01/22 10:42:23;;;;;;;12.65;6.00;;;;;;;;;;5096655;28;20036;-73
2022/01/22 10:45:19;;;;;;;20.13;8.77;;;;;;;;;;5097226;28;20493;-72
2022/01/22 10:48:21;;;;;;;12.57;5.47;;;;;;;;;;5097027;28;20032;-72
2022/01/22 10:51:11;;;;;;;16.98;8.60;;;;;;;;;;5096936;28;20493;-72
2022/01/22 10:54:00;;;;;;;13.15;6.63;;;;;;;;;;5104021;28;20397;-73
2022/01/22 10:56:46;;;;;;;9.55;4.95;;;;;;;;;;5103652;28;20043;-72
2022/01/22 10:59:32;;;;;;;9.52;3.33;;;;;;;;;;5103510;28;20040;-72
2022/01/22 11:02:34;;;;;;;5.55;3.63;;;;;;;;;;5096740;28;20393;-72
2022/01/22 11:05:37;;;;;;;8.05;4.53;;;;;;;;;;5096851;28;20036;-73
2022/01/22 11:08:23;;;;;;;4.82;3.08;;;;;;;;;;5102376;28;20078;-73
2022/01/22 11:11:09;;;;;;;10.82;4.72;;;;;;;;;;5096492;28;20036;-72
2022/01/22 11:13:55;;;;;;;10.85;4.00;;;;;;;;;;5096912;28;20040;-73
2022/01/22 11:16:42;;;;;;;7.93;4.03;;;;;;;;;;5103663;28;20040;-73
2022/01/22 11:19:35;;;;;;;3.95;2.90;;;;;;;;;;5096548;28;20040;-73
2022/01/22 11:22:22;;;;;;;4.85;3.10;;;;;;;;;;5094749;28;20048;-73
2022/01/22 11:25:08;;;;;;;13.57;4.25;;;;;;;;;;5096332;28;20043;-73
2022/01/22 11:27:54;;;;;;;6.78;3.63;;;;;;;;;;5096379;28;20052;-74
2022/01/22 11:30:42;;;;;;;6.45;3.35;;;;;;;;;;5096226;28;20040;-73
2022/01/22 11:33:31;;;;;;;12.52;7.35;;;;;;;;;;5096159;28;20043;-73
2022/01/22 11:36:26;;;;;;;12.35;6.03;;;;;;;;;;5109778;28;20405;-73
2022/01/22 11:39:17;;;;;;;;;;;;;;;;;;5096164;28;20044;-74
2022/01/22 11:42:04;;;;;;;12.85;7.85;;;;;;;;;;5095891;28;20362;-73
2022/01/22 11:45:01;;;;;;;8.77;3.47;;;;;;;;;;5087481;28;20489;-73
2022/01/22 11:48:13;;;;;;;8.77;5.07;;;;;;;;;;5094614;28;20040;-72
2022/01/22 11:51:28;;;;;;;9.57;5.85;;;;;;;;;;5096023;28;20040;-73
2022/01/22 11:54:15;;;;;;;;;;;;;;;;;;5091865;28;20040;-73
2022/01/22 11:57:14;;;;;;;9.75;4.57;;;;;;;;;;5103990;28;19912;-73
2022/01/22 12:00:28;;;;;;;7.03;3.83;;;;;;;;;;5095535;28;20379;-74
2022/01/22 12:03:12;;;;;;;4.03;2.85;;;;;;;;;;5095835;28;20044;-73
2022/01/22 12:06:00;;;;;;;8.90;3.92;;;;;;;;;;5096101;28;20054;-74
2022/01/22 12:09:12;;;;;;;13.10;7.38;;;;;;;;;;5095121;28;20401;-73
2022/01/22 12:15:50;;;;;;;12.00;5.43;;;;;;;;;;5095156;28;20044;-73
2022/01/22 12:18:42;;;;;;;10.98;5.55;;;;;;;;;;5095604;28;20036;-73
2022/01/22 12:21:38;;;;;;;10.60;5.72;;;;;;;;;;5094996;28;20040;-73
2022/01/22 12:24:31;;;;;;;13.25;6.28;;;;;;;;;;5102147;28;20040;-73
2022/01/22 12:27:45;;;;;;;11.27;6.47;;;;;;;;;;5080139;28;20036;-73
2022/01/22 12:30:33;;;;;;;20.90;10.52;;;;;;;;;;5095329;28;20040;-73
2022/01/22 12:33:30;;;;;;;32.60;12.40;;;;;;;;;;5102110;28;20036;-73
2022/01/22 12:36:24;;;;;;;13.60;7.80;;;;;;;;;;5094908;28;20052;-73
2022/01/22 12:39:17;;;;;;;17.38;7.60;;;;;;;;;;5095205;28;20480;-73
2022/01/22 12:42:11;;;;;;;10.45;6.15;;;;;;;;;;5102139;28;20477;-73
2022/01/22 12:45:05;;;;;;;10.27;6.65;;;;;;;;;;5094999;28;20051;-74
2022/01/22 12:47:54;;;;;;;29.90;16.25;;;;;;;;;;5095232;28;20044;-73
2022/01/22 12:50:40;;;;;;;22.75;12.25;;;;;;;;;;5094773;28;20036;-73
2022/01/22 12:53:25;;;;;;;39.45;19.15;;;;;;;;;;5094069;28;20040;-72
2022/01/22 12:56:35;;;;;;;24.98;13.70;;;;;;;;;;5085019;28;20044;-73
2022/01/22 12:59:19;;;;;;;19.95;10.40;;;;;;;;;;5093029;28;20032;-72
2022/01/22 13:02:05;;;;;;;25.65;13.38;;;;;;;;;;5093810;28;20477;-74
2022/01/22 13:05:01;;;;;;;24.98;11.40;;;;;;;;;;5094519;28;20044;-74
2022/01/22 13:08:08;;;;;;;30.88;16.42;;;;;;;;;;5085955;28;20044;-73
2022/01/22 13:11:09;;;;;;;33.83;15.20;;;;;;;;;;5085631;28;20036;-75
2022/01/22 13:13:57;;;;;;;25.20;13.13;;;;;;;;;;5101161;28;20397;-73
2022/01/22 13:16:48;;;;;;;24.17;12.10;;;;;;;;;;5094290;28;20056;-73
2022/01/22 13:19:38;;;;;;;15.15;6.50;;;;;;;;;;5094041;28;20389;-73
2022/01/22 13:22:36;;;;;;;30.95;12.82;;;;;;;;;;5094275;28;20040;-73
2022/01/22 13:25:22;;;;;;;16.42;10.05;;;;;;;;;;5093974;28;20044;-73
2022/01/22 13:28:12;;;;;;;9.77;6.32;;;;;;;;;;5094176;28;20058;-74
2022/01/22 13:31:03;;;;;;;24.85;12.80;;;;;;;;;;5100823;28;20044;-73
2022/01/22 13:34:11;;;;;;;32.85;15.88;;;;;;;;;;5100463;28;20051;-74
2022/01/22 13:37:40;;;;;;;21.58;10.50;;;;;;;;;;5094033;28;20047;-73
2022/01/22 13:49:55;;;;;;;30.20;16.45;;;;;;;;;;5094279;28;20485;-73
2022/01/22 13:52:41;;;;;;;23.30;12.02;;;;;;;;;;5094176;28;20048;-73
2022/01/22 13:55:26;;;;;;;21.05;10.70;;;;;;;;;;5100437;28;20040;-73
2022/01/22 13:58:19;;;;;;;9.80;6.25;;;;;;;;;;5093740;28;20036;-73
2022/01/22 14:01:27;;;;;;;30.67;16.05;;;;;;;;;;5093539;28;20401;-73
2022/01/22 14:04:14;;;;;;;37.58;20.83;;;;;;;;;;5093477;28;20036;-73
2022/01/22 14:06:59;;;;;;;32.92;17.30;;;;;;;;;;5100441;28;20040;-74
2022/01/22 14:09:54;;;;;;;24.17;13.45;;;;;;;;;;5093148;28;20060;-72
2022/01/22 14:12:54;;;;;;;46.05;22.10;;;;;;;;;;5093551;28;20043;-74
2022/01/22 14:15:45;;;;;;;22.00;13.07;;;;;;;;;;5093476;28;20405;-74
2022/01/22 14:18:39;;;;;;;22.27;12.93;;;;;;;;;;5099560;28;20051;-74
2022/01/22 14:21:26;;;;;;;19.77;10.57;;;;;;;;;;5093237;28;20036;-72
2022/01/22 14:24:10;;;;;;;16.20;10.48;;;;;;;;;;5099926;28;20403;-73
2022/01/22 14:26:55;;;;;;;18.92;12.38;;;;;;;;;;5093506;28;20036;-73
2022/01/22 14:29:44;;;;;;;21.25;11.82;;;;;;;;;;5093373;28;20405;-75
2022/01/22 14:32:30;;;;;;;41.83;21.10;;;;;;;;;;5093432;28;20481;-75
2022/01/22 14:35:19;;;;;;;29.33;14.35;;;;;;;;;;5093190;28;20037;-75
2022/01/22 14:38:21;;;;;;;40.00;20.65;;;;;;;;;;5093364;28;20045;-74
2022/01/22 14:47:21;;;;;;;53.10;25.38;;;;;;;;;;5093249;28;20052;-75
2022/01/22 14:50:10;;;;;;;36.25;17.52;;;;;;;;;;5094292;28;20036;-73
2022/01/22 14:52:57;;;;;;;83.30;40.00;;;;;;;;;;5106458;28;20052;-74
2022/01/22 14:55:57;;;;;;;42.08;21.15;;;;;;;;;;5093227;28;20044;-73
2022/01/22 14:58:42;;;;;;;40.42;22.10;;;;;;;;;;5078130;28;20044;-74
2022/01/22 15:01:28;;;;;;;49.70;27.25;;;;;;;;;;5093007;28;20040;-74
2022/01/22 15:04:14;;;;;;;55.38;26.50;;;;;;;;;;5093609;28;20036;-74
2022/01/22 15:07:01;;;;;;;61.13;23.45;;;;;;;;;;5092839;28;20040;-74
2022/01/22 15:09:48;;;;;;;42.75;20.45;;;;;;;;;;5094674;28;20048;-74
2022/01/22 15:12:34;;;;;;;41.72;20.33;;;;;;;;;;5099534;28;20036;-74
2022/01/22 15:15:22;;;;;;;30.15;17.38;;;;;;;;;;5093099;28;20045;-74
2022/01/22 15:18:13;;;;;;;38.85;20.38;;;;;;;;;;5096780;28;20040;-75
2022/01/22 15:20:58;;;;;;;23.33;9.52;;;;;;;;;;5096280;28;20048;-74
2022/01/22 15:23:44;;;;;;;25.35;14.30;;;;;;;;;;5096425;28;20060;-75
2022/01/22 15:26:30;;;;;;;33.70;17.83;;;;;;;;;;5096268;28;20485;-74
2022/01/22 15:29:23;;;;;;;32.65;17.90;;;;;;;;;;5081455;28;20047;-75
2022/01/22 15:32:19;;;;;;;28.63;15.93;;;;;;;;;;5096732;28;20401;-75
2022/01/22 15:35:08;;;;;;;29.75;17.52;;;;;;;;;;5096368;28;20052;-74
2022/01/22 15:37:57;;;;;;;28.55;16.63;;;;;;;;;;5096499;28;20048;-74
2022/01/22 15:40:45;;;;;;;28.63;15.80;;;;;;;;;;5102922;28;20032;-74
2022/01/22 15:43:30;;;;;;;14.80;9.43;;;;;;;;;;5080838;28;20036;-73
2022/01/22 15:46:16;;;;;;;16.83;9.75;;;;;;;;;;5096420;28;20040;-74
2022/01/22 15:49:02;;;;;;;17.30;9.23;;;;;;;;;;5095876;28;20040;-74
2022/01/22 15:51:56;;;;;;;14.38;8.18;;;;;;;;;;5096208;28;20040;-74
2022/01/22 15:54:41;;;;;;;15.05;7.88;;;;;;;;;;5096092;28;20048;-74
2022/01/22 15:57:27;;;;;;;15.05;8.90;;;;;;;;;;5109089;28;20048;-73
2022/01/22 16:00:14;;;;;;;13.00;9.60;;;;;;;;;;5096360;28;20040;-81
2022/01/22 16:03:05;;;;;;;30.30;16.02;;;;;;;;;;5097019;28;20052;-84
2022/01/22 16:05:54;;;;;;;37.75;18.58;;;;;;;;;;5074002;28;20044;-85
2022/01/22 16:08:40;;;;;;;23.08;13.40;;;;;;;;;;5086583;28;20045;-84
2022/01/22 16:11:25;;;;;;;20.40;11.68;;;;;;;;;;5084859;28;20040;-83
2022/01/22 16:14:11;;;;;;;29.08;15.93;;;;;;;;;;5073860;28;20047;-84
2022/01/22 16:16:57;;;;;;;11.20;7.60;;;;;;;;;;5096589;28;20051;-84
2022/01/22 16:19:42;;;;;;;15.15;10.70;;;;;;;;;;5096421;28;20039;-84
2022/01/22 16:22:29;;;;;;;14.60;7.90;;;;;;;;;;5080807;28;20040;-85
2022/01/22 16:25:14;;;;;;;22.85;13.40;;;;;;;;;;5080811;28;20040;-84
2022/01/22 16:28:00;;;;;;;29.60;11.57;;;;;;;;;;5096525;28;20048;-83
2022/01/22 16:30:46;;;;;;;28.13;10.50;;;;;;;;;;5095985;28;20040;-84
2022/01/22 16:33:32;;;;;;;24.13;10.30;;;;;;;;;;5096374;28;20397;-84
2022/01/22 16:36:18;;;;;;;21.85;11.80;;;;;;;;;;5081425;28;20069;-84
2022/01/22 16:39:05;;;;;;;49.03;18.50;;;;;;;;;;5095661;28;20035;-83
2022/01/22 16:41:58;;;;;;;31.17;15.85;;;;;;;;;;5095522;28;20393;-83
2022/01/22 16:45:45;;;;;;;20.65;10.93;;;;;;;;;;5087111;28;20043;-84
2022/01/22 16:57:15;;;;;;;29.92;14.13;;;;;;;;;;5095835;28;20044;-83
2022/01/22 17:00:06;;;;;;;31.27;15.65;;;;;;;;;;5079597;28;20489;-83
2022/01/22 17:02:52;;;;;;;14.52;7.13;;;;;;;;;;5079556;28;20032;-83
2022/01/22 17:05:40;;;;;;;44.25;21.40;;;;;;;;;;5111926;28;20036;-83
2022/01/22 17:08:33;;;;;;;25.83;14.38;;;;;;;;;;5103444;28;20044;-83
2022/01/22 17:11:27;;;;;;;18.08;9.75;;;;;;;;;;5100253;28;20482;-83
2022/01/22 17:14:13;;;;;;;13.65;8.90;;;;;;;;;;5099062;28;20048;-82
2022/01/22 17:16:59;;;;;;;19.65;7.80;;;;;;;;;;5096125;28;20048;-83
2022/01/22 17:19:44;;;;;;;16.45;9.32;;;;;;;;;;5095322;28;20047;-83
2022/01/22 17:22:30;;;;;;;27.15;14.43;;;;;;;;;;5079421;28;20040;-83
2022/01/22 17:25:17;;;;;;;34.58;17.23;;;;;;;;;;5079905;28;20047;-83
2022/01/22 17:28:04;;;;;;;38.28;17.60;;;;;;;;;;5085955;28;20039;-84
2022/01/22 17:30:51;;;;;;;29.65;12.23;;;;;;;;;;5086061;28;20047;-83
2022/01/22 17:33:36;;;;;;;30.98;14.70;;;;;;;;;;5071622;28;20040;-83
2022/01/22 17:36:22;;;;;;;38.40;15.18;;;;;;;;;;5094129;28;20036;-82
2022/01/22 17:39:11;;;;;;;32.70;16.92;;;;;;;;;;5094385;28;20493;-83
2022/01/22 17:41:57;;;;;;;25.17;13.73;;;;;;;;;;5082099;28;20044;-84
2022/01/22 17:44:47;;;;;;;22.15;13.32;;;;;;;;;;5097331;28;20478;-83
2022/01/22 17:47:33;;;;;;;58.35;27.00;;;;;;;;;;5098661;28;20044;-83
2022/01/22 17:50:19;;;;;;;34.28;16.20;;;;;;;;;;5098948;28;20043;-83
2022/01/22 17:53:05;;;;;;;18.48;9.63;;;;;;;;;;5082551;28;20031;-84
2022/01/22 17:55:54;;;;;;;24.48;13.27;;;;;;;;;;5085148;28;20047;-84
2022/01/22 17:58:39;;;;;;;29.50;16.90;;;;;;;;;;5122950;28;20036;-84
2022/01/22 18:01:25;;;;;;;30.15;15.38;;;;;;;;;;5093756;28;20036;-84
2022/01/22 18:04:11;;;;;;;14.30;7.95;;;;;;;;;;5094154;28;20044;-84
2022/01/22 18:06:57;;;;;;;16.38;10.77;;;;;;;;;;5093931;28;20052;-84
2022/01/22 18:09:43;;;;;;;28.42;16.23;;;;;;;;;;5068230;28;20048;-85
2022/01/22 18:12:28;;;;;;;24.88;13.77;;;;;;;;;;5094228;28;20048;-83
2022/01/22 18:15:14;;;;;;;31.95;17.08;;;;;;;;;;5093784;28;20043;-84
2022/01/22 18:17:59;;;;;;;43.03;21.85;;;;;;;;;;5093266;28;20401;-83
2022/01/22 18:20:45;;;;;;;47.75;22.38;;;;;;;;;;5093890;28;20043;-85
2022/01/22 18:23:31;;;;;;;44.03;22.92;;;;;;;;;;5095992;28;20047;-84
2022/01/22 18:26:16;;;;;;;51.78;26.25;;;;;;;;;;5093344;28;20040;-84
2022/01/22 18:29:08;;;;;;;44.95;26.10;;;;;;;;;;5093639;28;20040;-84
2022/01/22 18:31:53;;;;;;;100.50;41.33;;;;;;;;;;5085401;28;20043;-84
2022/01/22 18:34:40;;;;;;;75.68;35.75;;;;;;;;;;5085476;28;20040;-83
2022/01/22 18:37:27;;;;;;;72.60;35.65;;;;;;;;;;5099867;28;20036;-85
2022/01/22 18:40:17;;;;;;;81.28;40.95;;;;;;;;;;5116236;28;20036;-80
2022/01/22 18:43:03;;;;;;;53.30;26.80;;;;;;;;;;5093513;28;20040;-81
2022/01/22 18:45:51;;;;;;;44.53;27.05;;;;;;;;;;5100166;28;20401;-82
2022/01/22 18:48:38;;;;;;;56.22;30.75;;;;;;;;;;5078390;28;20044;-81
2022/01/22 18:51:25;;;;;;;45.47;24.98;;;;;;;;;;5095043;28;20509;-81
2022/01/22 18:54:10;;;;;;;42.63;23.98;;;;;;;;;;5096923;28;20044;-81
2022/01/22 18:56:56;;;;;;;58.22;29.85;;;;;;;;;;5082708;28;20040;-82
2022/01/22 18:59:41;;;;;;;55.95;29.73;;;;;;;;;;5097116;28;20373;-83
2022/01/22 19:02:28;;;;;;;73.32;33.63;;;;;;;;;;5096773;28;20393;-82